Time;durP1;ratioP1;P1;durP2;ratioP2;P2;SDS_P1;SDS_P2;PMS_P1;PMS_P2;Temp;Humidity;BMP_temperature;BMP_pressure;BME280_temperature;BME280_humidity;BME280_pressure;Samples;Min_cycle;Max_cycle;Signal;HPM_P1;HPM_P2
2021/12/14 00:02:26;;;;;;;23.92;15.30;;;;;;;11.18;71.28;102725.91;5023386;28;20060;-59
2021/12/14 00:04:52;;;;;;;25.02;15.52;;;;;;;11.17;71.05;102734.56;5015405;28;20099;-59
2021/12/14 00:07:19;;;;;;;25.55;14.98;;;;;;;11.21;71.10;102741.72;5012772;28;20387;-59
2021/12/14 00:09:45;;;;;;;24.00;14.82;;;;;;;11.18;70.77;102741.56;5014945;28;20053;-59
2021/12/14 00:12:39;;;;;;;23.63;14.95;;;;;;;11.22;71.05;102748.69;5023321;28;20045;-58
2021/12/14 00:15:11;;;;;;;29.55;15.95;;;;;;;11.20;70.58;102758.19;5026390;28;20060;-59
2021/12/14 00:17:48;;;;;;;24.50;14.68;;;;;;;11.23;70.63;102754.81;5012380;28;20547;-60
2021/12/14 00:20:22;;;;;;;24.63;15.30;;;;;;;11.18;70.66;102744.19;5021747;28;20138;-60
2021/12/14 00:25:36;;;;;;;24.92;15.40;;;;;;;11.20;70.54;102750.38;5025873;28;20302;-58
2021/12/14 00:28:13;;;;;;;22.92;15.38;;;;;;;11.20;70.83;102754.69;5017064;28;20052;-58
2021/12/14 00:30:41;;;;;;;26.38;16.02;;;;;;;11.21;70.35;102749.53;5018597;28;20572;-59
2021/12/14 00:33:11;;;;;;;28.70;16.58;;;;;;;11.23;70.62;102760.03;5019164;28;20044;-59
2021/12/14 00:35:37;;;;;;;26.30;16.60;;;;;;;11.24;70.43;102752.25;5004375;28;20040;-58
2021/12/14 00:38:02;;;;;;;28.10;17.30;;;;;;;11.20;70.20;102746.88;5023087;28;20554;-61
2021/12/14 00:40:33;;;;;;;27.63;17.05;;;;;;;11.17;70.79;102742.41;5008882;28;20118;-59
2021/12/14 00:42:59;;;;;;;29.58;17.42;;;;;;;11.17;70.41;102733.66;5005484;28;20665;-58
2021/12/14 00:45:26;;;;;;;29.90;17.65;;;;;;;11.18;70.99;102735.47;5003151;28;20052;-59
2021/12/14 00:47:52;;;;;;;28.25;17.20;;;;;;;11.14;70.99;102730.94;5018753;28;20041;-58
2021/12/14 00:50:20;;;;;;;30.55;17.58;;;;;;;11.08;71.49;102739.44;5016728;28;20511;-59
2021/12/14 00:52:47;;;;;;;29.90;17.83;;;;;;;11.05;71.46;102727.94;5008779;28;20143;-60
2021/12/14 00:55:16;;;;;;;29.33;17.80;;;;;;;11.11;71.19;102726.47;5009998;28;20111;-59
2021/12/14 00:57:42;;;;;;;30.45;18.65;;;;;;;11.11;71.36;102726.47;5003674;28;20699;-59
2021/12/14 01:00:12;;;;;;;31.17;18.35;;;;;;;11.11;71.50;102720.38;5026652;28;20542;-60
2021/12/14 01:02:38;;;;;;;30.65;19.17;;;;;;;11.06;71.21;102691.47;4998827;28;20879;-58
2021/12/14 01:05:12;;;;;;;33.25;20.10;;;;;;;11.01;71.35;102692.13;5024552;28;20578;-59
2021/12/14 01:07:38;;;;;;;32.65;19.58;;;;;;;11.05;71.37;102694.03;4993404;28;20036;-59
2021/12/14 01:10:22;;;;;;;34.67;19.35;;;;;;;11.01;71.86;102694.75;4992130;28;20049;-59
2021/12/14 01:12:54;;;;;;;33.27;20.07;;;;;;;11.00;71.92;102686.00;5021198;28;20071;-59
2021/12/14 01:15:31;;;;;;;35.05;19.98;;;;;;;10.96;71.84;102689.34;5010762;28;20044;-59
2021/12/14 01:18:28;;;;;;;33.47;19.35;;;;;;;11.05;71.84;102683.59;5021740;28;20056;-59
2021/12/14 01:20:59;;;;;;;32.83;18.77;;;;;;;11.03;72.13;102682.66;5013157;28;20038;-59
2021/12/14 01:23:32;;;;;;;33.60;20.25;;;;;;;11.03;72.16;102680.94;5018698;28;20048;-59
2021/12/14 01:26:03;;;;;;;35.00;19.52;;;;;;;11.03;71.61;102680.94;4993049;28;20641;-59
2021/12/14 01:28:29;;;;;;;34.08;19.73;;;;;;;11.05;71.78;102681.88;5012812;28;20038;-60
2021/12/14 01:31:26;;;;;;;32.15;19.35;;;;;;;11.03;71.68;102674.81;5014739;28;20049;-59
2021/12/14 01:34:13;;;;;;;32.58;18.80;;;;;;;11.01;71.94;102676.47;4998980;28;20073;-60
2021/12/14 01:36:44;;;;;;;31.77;19.50;;;;;;;11.03;71.79;102691.38;5015946;28;20052;-59
2021/12/14 01:41:47;;;;;;;32.03;19.45;;;;;;;11.00;71.61;102699.06;5005362;28;20601;-59
2021/12/14 01:44:12;;;;;;;32.55;19.25;;;;;;;11.01;71.74;102706.06;5017142;28;20048;-59
2021/12/14 01:46:46;;;;;;;31.75;19.83;;;;;;;11.02;71.67;102699.13;5017000;28;20041;-58
2021/12/14 01:49:14;;;;;;;32.30;19.23;;;;;;;10.97;71.95;102692.03;5014770;28;20119;-59
2021/12/14 01:51:42;;;;;;;32.25;19.58;;;;;;;10.99;71.83;102692.94;5015442;28;20069;-58
2021/12/14 01:54:11;;;;;;;33.97;19.85;;;;;;;11.02;72.01;102694.81;5021378;28;20064;-59
2021/12/14 01:56:37;;;;;;;35.70;19.80;;;;;;;11.01;71.80;102685.19;5015249;28;20040;-58
2021/12/14 01:59:14;;;;;;;33.97;20.35;;;;;;;10.98;71.92;102688.56;5014859;28;20033;-60
2021/12/14 02:01:55;;;;;;;33.80;19.60;;;;;;;11.02;72.12;102696.53;5014221;28;20564;-59
2021/12/14 02:04:25;;;;;;;31.95;20.23;;;;;;;11.00;72.15;102706.88;5013782;28;20072;-60
2021/12/14 02:07:04;;;;;;;32.97;19.42;;;;;;;11.01;71.90;102699.97;5014181;28;20072;-59
2021/12/14 02:09:31;;;;;;;32.75;20.35;;;;;;;11.03;71.38;102693.09;4995412;28;20045;-59
2021/12/14 02:11:59;;;;;;;32.95;20.83;;;;;;;11.02;71.97;102696.53;5016275;28;20818;-60
2021/12/14 02:14:25;;;;;;;32.92;20.38;;;;;;;11.01;71.73;102690.41;5011369;28;20711;-57
2021/12/14 02:16:55;;;;;;;32.88;20.05;;;;;;;11.01;71.70;102697.34;5011584;28;20404;-58
2021/12/14 02:19:21;;;;;;;35.08;20.55;;;;;;;10.99;71.61;102690.34;4989485;28;20352;-60
2021/12/14 02:21:49;;;;;;;32.80;19.67;;;;;;;11.02;72.04;102686.09;4998800;28;20488;-60
2021/12/14 02:24:19;;;;;;;34.00;20.13;;;;;;;11.01;71.71;102690.41;5016542;28;20076;-61
2021/12/14 02:26:44;;;;;;;34.58;20.70;;;;;;;10.97;72.16;102693.75;4999369;28;20081;-59
2021/12/14 02:29:21;;;;;;;33.20;20.40;;;;;;;10.96;72.21;102689.34;5016773;28;20610;-60
2021/12/14 02:31:48;;;;;;;32.47;19.85;;;;;;;11.00;71.97;102688.63;5013703;28;21725;-59
2021/12/14 02:34:13;;;;;;;31.77;20.23;;;;;;;10.99;72.00;102697.28;5016673;28;20056;-59
2021/12/14 02:36:42;;;;;;;33.15;20.83;;;;;;;10.98;72.04;102692.88;5013113;28;20041;-60
2021/12/14 02:39:23;;;;;;;34.33;19.98;;;;;;;10.98;71.95;102696.38;5019807;28;20571;-58
2021/12/14 02:41:52;;;;;;;31.30;19.85;;;;;;;11.02;71.60;102686.09;4978284;28;20479;-59
2021/12/14 02:44:20;;;;;;;33.55;19.98;;;;;;;11.01;71.60;102693.03;5014527;28;20124;-58
2021/12/14 02:46:51;;;;;;;33.15;19.95;;;;;;;10.98;71.70;102685.06;5001465;28;20574;-59
2021/12/14 02:49:21;;;;;;;32.38;19.63;;;;;;;11.03;71.90;102673.09;5006127;28;20688;-59
2021/12/14 02:51:54;;;;;;;33.88;20.15;;;;;;;10.99;72.00;102666.84;5010575;28;21046;-59
2021/12/14 02:54:23;;;;;;;31.98;19.95;;;;;;;10.96;72.13;102665.84;5007112;28;20055;-59
2021/12/14 02:56:54;;;;;;;33.33;19.90;;;;;;;10.91;72.00;102663.06;5016216;28;20748;-59
2021/12/14 02:59:24;;;;;;;31.17;19.67;;;;;;;10.91;71.97;102670.00;5008880;28;20073;-61
2021/12/14 03:01:52;;;;;;;33.78;19.35;;;;;;;10.88;71.99;102662.03;5011965;28;20037;-59
2021/12/14 03:04:18;;;;;;;33.38;18.77;;;;;;;10.93;71.93;102665.72;5010855;28;20435;-59
2021/12/14 03:06:50;;;;;;;33.30;18.88;;;;;;;10.90;71.93;102673.44;5016555;28;20029;-59
2021/12/14 03:09:55;;;;;;;33.83;19.52;;;;;;;10.88;72.38;102678.59;5015797;28;20491;-58
2021/12/14 03:12:27;;;;;;;32.03;18.98;;;;;;;10.93;72.16;102682.25;5011540;28;20395;-58
2021/12/14 03:14:57;;;;;;;32.90;18.50;;;;;;;10.95;71.88;102687.56;4998064;28;20408;-59
2021/12/14 03:17:23;;;;;;;34.50;18.65;;;;;;;10.87;72.10;102681.13;5011279;28;20465;-59
2021/12/14 03:19:54;;;;;;;31.67;18.48;;;;;;;10.91;71.95;102680.44;5014486;28;21949;-60
2021/12/14 03:22:45;;;;;;;32.15;19.13;;;;;;;10.88;72.06;102685.50;5002302;28;20374;-58
2021/12/14 03:25:13;;;;;;;36.65;19.35;;;;;;;10.87;72.43;102688.94;5012996;28;20169;-58
2021/12/14 03:27:40;;;;;;;31.92;18.77;;;;;;;10.90;71.87;102692.59;5006603;28;20048;-59
2021/12/14 03:30:17;;;;;;;30.42;19.08;;;;;;;10.84;72.09;102683.63;5015727;28;20037;-59
2021/12/14 03:32:42;;;;;;;34.90;19.80;;;;;;;10.83;72.48;102687.94;5018916;28;20867;-61
2021/12/14 03:35:08;;;;;;;32.47;19.15;;;;;;;10.85;72.34;102691.53;5025711;28;20460;-58
2021/12/14 03:37:33;;;;;;;31.65;19.25;;;;;;;10.85;72.18;102699.34;5004753;28;20601;-58
2021/12/14 03:40:00;;;;;;;31.60;19.35;;;;;;;10.87;72.35;102694.16;5020322;28;20047;-59
2021/12/14 03:42:37;;;;;;;33.08;19.50;;;;;;;10.87;72.39;102704.59;5021291;28;20057;-59
2021/12/14 03:45:09;;;;;;;32.58;19.00;;;;;;;10.83;72.00;102692.28;5014978;28;21204;-60
2021/12/14 03:47:41;;;;;;;32.92;18.98;;;;;;;10.81;72.16;102694.81;5004776;28;20048;-59
2021/12/14 03:50:08;;;;;;;32.05;19.05;;;;;;;10.86;72.02;102700.22;5023818;28;20045;-59
2021/12/14 03:52:36;;;;;;;33.92;19.27;;;;;;;10.85;71.79;102698.44;5022097;28;20036;-58
2021/12/14 03:55:06;;;;;;;37.75;20.23;;;;;;;10.82;71.89;102706.13;5020506;28;20544;-59
2021/12/14 03:57:31;;;;;;;31.25;19.63;;;;;;;10.84;72.16;102705.38;5010800;28;20500;-59
2021/12/14 03:59:56;;;;;;;30.80;18.95;;;;;;;10.83;71.97;102694.88;5016002;28;20048;-59
2021/12/14 04:02:22;;;;;;;33.00;18.73;;;;;;;10.83;72.25;102689.66;5008580;28;20464;-59
2021/12/14 04:05:11;;;;;;;35.17;20.10;;;;;;;10.78;72.42;102683.38;5004445;28;20397;-59
2021/12/14 04:07:41;;;;;;;31.75;19.42;;;;;;;10.78;71.95;102680.75;5015322;28;20336;-59
2021/12/14 04:10:25;;;;;;;31.98;18.75;;;;;;;10.77;72.37;102689.41;5002283;28;20046;-60
2021/12/14 04:12:52;;;;;;;34.07;18.97;;;;;;;10.80;72.27;102689.53;5021488;28;20040;-59
2021/12/14 04:15:18;;;;;;;31.90;18.92;;;;;;;10.78;71.86;102696.41;5006523;28;20422;-59
2021/12/14 04:17:43;;;;;;;31.38;18.80;;;;;;;10.79;71.82;102699.09;5005061;28;20325;-59
2021/12/14 04:20:24;;;;;;;32.28;19.00;;;;;;;10.72;72.40;102699.66;5018777;28;20166;-60
2021/12/14 04:22:50;;;;;;;29.50;17.45;;;;;;;10.76;72.44;102698.94;5020529;28;20248;-58
2021/12/14 04:25:19;;;;;;;30.35;19.05;;;;;;;10.76;72.12;102701.56;5010531;28;20516;-60
2021/12/14 04:27:45;;;;;;;30.55;18.15;;;;;;;10.74;72.09;102690.16;5011387;28;20121;-60
2021/12/14 04:30:13;;;;;;;30.60;18.23;;;;;;;10.76;72.11;102693.72;5020019;28;20424;-59
2021/12/14 04:32:39;;;;;;;34.05;17.98;;;;;;;10.74;72.09;102694.47;4970191;28;20057;-59
2021/12/14 04:35:06;;;;;;;29.63;18.25;;;;;;;10.75;72.07;102699.78;5007369;28;20452;-60
2021/12/14 04:37:37;;;;;;;29.38;17.65;;;;;;;10.75;72.28;102698.88;4986956;28;20407;-59
2021/12/14 04:54:15;;;;;;;26.70;16.03;;;;;;;10.70;72.10;102675.22;5018123;28;20522;-60
2021/12/14 04:56:43;;;;;;;27.10;16.45;;;;;;;10.69;72.14;102675.16;5014315;28;20288;-58
2021/12/14 04:59:20;;;;;;;25.83;16.20;;;;;;;10.68;71.74;102668.16;5021747;28;20122;-60
2021/12/14 05:01:47;;;;;;;28.55;16.70;;;;;;;10.69;71.75;102676.03;5003143;28;20492;-59
2021/12/14 05:04:17;;;;;;;27.38;15.48;;;;;;;10.68;71.81;102674.25;5022443;28;20033;-60
2021/12/14 05:07:02;;;;;;;28.65;16.20;;;;;;;10.62;72.27;102670.50;5018385;28;20524;-60
2021/12/14 05:09:36;;;;;;;27.20;15.63;;;;;;;10.68;72.13;102660.31;5015219;28;20060;-59
2021/12/14 05:12:10;;;;;;;28.73;16.90;;;;;;;10.66;72.09;102664.59;5018682;28;20485;-59
2021/12/14 05:14:38;;;;;;;27.08;15.85;;;;;;;10.69;71.57;102664.72;5011920;28;20032;-58
2021/12/14 05:17:15;;;;;;;25.67;15.93;;;;;;;10.60;72.25;102672.16;5012588;28;20087;-58
2021/12/14 05:19:42;;;;;;;26.00;16.02;;;;;;;10.63;71.80;102670.56;5009622;28;20037;-59
2021/12/14 05:22:11;;;;;;;25.98;15.27;;;;;;;10.61;72.25;102660.91;5017185;28;20044;-59
2021/12/14 05:24:43;;;;;;;26.58;15.63;;;;;;;10.62;72.37;102666.19;5015266;28;20037;-58
2021/12/14 05:27:15;;;;;;;30.45;15.88;;;;;;;10.64;72.29;102663.63;5022392;28;20545;-60
2021/12/14 05:29:41;;;;;;;29.80;16.40;;;;;;;10.61;71.85;102668.75;5001799;28;20299;-59
2021/12/14 05:32:07;;;;;;;27.15;16.20;;;;;;;10.58;72.19;102666.88;5015091;28;20040;-57
2021/12/14 05:34:34;;;;;;;25.02;15.13;;;;;;;10.62;72.07;102670.50;5015786;28;20114;-60
2021/12/14 05:37:00;;;;;;;27.63;15.90;;;;;;;10.61;71.91;102668.75;5020241;28;20048;-58
2021/12/14 05:39:50;;;;;;;27.90;15.43;;;;;;;10.61;71.66;102667.03;5014794;28;20049;-58
2021/12/14 05:45:10;;;;;;;27.45;15.15;;;;;;;10.60;71.81;102677.38;5017567;28;20047;-59
2021/12/14 05:47:45;;;;;;;30.10;15.93;;;;;;;10.59;71.98;102679.09;5001050;28;20080;-58
2021/12/14 05:50:25;;;;;;;29.05;16.13;;;;;;;10.53;72.31;102671.03;5018310;28;20065;-59
2021/12/14 05:52:50;;;;;;;29.40;15.98;;;;;;;10.58;72.08;102677.31;4992911;28;20033;-61
2021/12/14 05:55:23;;;;;;;28.33;15.77;;;;;;;10.61;71.94;102687.91;5000019;28;20041;-58
2021/12/14 05:57:49;;;;;;;26.60;15.45;;;;;;;10.64;71.70;102687.13;5008094;28;20047;-59
2021/12/14 06:00:17;;;;;;;26.02;15.52;;;;;;;10.56;72.01;102692.91;5013528;28;20045;-59
2021/12/14 06:02:44;;;;;;;27.67;15.15;;;;;;;10.58;71.97;102690.34;5013892;28;20041;-59
2021/12/14 06:05:15;;;;;;;29.80;15.80;;;;;;;10.60;71.83;102691.31;5022138;28;20044;-60
2021/12/14 06:07:41;;;;;;;26.27;15.02;;;;;;;10.60;71.91;102687.81;5014570;28;20397;-59
2021/12/14 06:10:07;;;;;;;28.13;15.52;;;;;;;10.60;72.04;102691.31;4990594;28;20033;-61
2021/12/14 06:12:34;;;;;;;27.40;14.90;;;;;;;10.65;71.94;102691.50;5019595;28;20044;-59
2021/12/14 06:15:01;;;;;;;28.23;15.63;;;;;;;10.64;72.32;102690.63;5026646;28;20821;-59
2021/12/14 06:17:30;;;;;;;46.50;23.95;;;;;;;10.66;72.20;102698.50;4988935;28;20296;-61
2021/12/14 06:19:59;;;;;;;30.02;16.17;;;;;;;10.62;72.20;102700.09;4995264;28;20056;-58
2021/12/14 06:22:25;;;;;;;32.47;15.50;;;;;;;10.66;72.42;102699.41;5006075;28;20132;-59
2021/12/14 06:24:57;;;;;;;31.23;15.77;;;;;;;10.67;72.20;102695.97;5024336;28;20797;-59
2021/12/14 06:27:28;;;;;;;26.42;14.90;;;;;;;10.67;71.96;102709.03;5003483;28;20798;-60
2021/12/14 06:30:14;;;;;;;29.92;16.08;;;;;;;10.67;72.14;102702.91;5019176;28;20043;-59
2021/12/14 06:33:04;;;;;;;27.13;15.07;;;;;;;10.70;71.75;102700.41;5017754;28;20474;-58
2021/12/14 06:35:37;;;;;;;31.42;15.55;;;;;;;10.68;72.15;102704.66;5010077;28;20122;-58
2021/12/14 06:41:09;;;;;;;32.97;18.58;;;;;;;10.63;72.02;102712.31;5017406;28;20076;-59
2021/12/14 06:43:39;;;;;;;34.03;16.63;;;;;;;10.66;72.43;102708.94;4998346;28;20072;-59
2021/12/14 06:46:08;;;;;;;27.88;15.30;;;;;;;10.65;72.20;102712.38;5003652;28;20091;-60
2021/12/14 06:48:41;;;;;;;30.10;15.77;;;;;;;10.62;71.90;102717.44;5016630;28;20052;-60
2021/12/14 06:51:14;;;;;;;28.17;15.40;;;;;;;10.66;71.81;102728.09;5002367;28;20358;-61
2021/12/14 06:53:41;;;;;;;29.85;15.02;;;;;;;10.63;72.20;102733.16;5009873;28;20467;-60
2021/12/14 06:56:10;;;;;;;30.15;16.55;;;;;;;10.62;72.43;102728.78;5017803;28;20041;-60
2021/12/14 06:58:44;;;;;;;28.02;16.02;;;;;;;10.66;72.34;102735.03;4998414;28;20041;-60
2021/12/14 07:01:12;;;;;;;;;;;;;;;10.66;72.36;102732.41;4994629;28;20045;-60
2021/12/14 07:03:48;;;;;;;31.90;15.50;;;;;;;10.66;72.25;102730.72;5010745;28;19927;-59
2021/12/14 07:06:23;;;;;;;40.25;20.13;;;;;;;10.67;72.30;102726.38;4987986;28;20095;-59
2021/12/14 07:08:49;;;;;;;35.35;17.67;;;;;;;10.69;72.25;102733.44;5019962;28;20143;-60
2021/12/14 07:11:21;;;;;;;29.90;15.73;;;;;;;10.71;72.37;102736.13;5020739;28;20484;-58
2021/12/14 07:13:48;;;;;;;29.23;15.30;;;;;;;10.68;72.35;102738.56;5005350;28;20504;-58
2021/12/14 07:16:20;;;;;;;30.50;16.02;;;;;;;10.67;72.38;102724.66;5014979;28;20098;-59
2021/12/14 07:18:50;;;;;;;30.80;16.13;;;;;;;10.65;72.18;102731.53;5009920;28;20099;-59
2021/12/14 07:21:34;;;;;;;33.92;16.80;;;;;;;10.61;72.72;102729.63;5017990;28;20053;-58
2021/12/14 07:24:22;;;;;;;31.70;17.13;;;;;;;10.61;72.56;102733.94;5019156;28;20108;-59
2021/12/14 07:27:10;;;;;;;33.28;16.08;;;;;;;10.62;72.71;102736.59;5016390;28;20247;-59
2021/12/14 07:29:36;;;;;;;41.28;20.25;;;;;;;10.69;72.82;102741.25;5013556;28;20044;-59
2021/12/14 07:32:02;;;;;;;66.65;28.70;;;;;;;10.63;73.12;102748.81;5022024;28;20045;-59
2021/12/14 07:34:27;;;;;;;52.55;23.13;;;;;;;10.65;72.86;102755.00;5014280;28;20048;-58
2021/12/14 07:36:53;;;;;;;43.10;19.30;;;;;;;10.68;72.94;102760.34;5014618;28;21388;-57
2021/12/14 07:39:20;;;;;;;48.83;23.42;;;;;;;10.71;73.10;102757.88;5017522;28;20365;-60
2021/12/14 07:41:48;;;;;;;45.03;23.45;;;;;;;10.76;72.77;102756.34;4999190;28;20855;-60
2021/12/14 07:44:18;;;;;;;39.65;18.50;;;;;;;10.77;73.15;102763.34;5005669;28;20055;-59
2021/12/14 07:46:53;;;;;;;33.30;16.85;;;;;;;10.77;72.94;102757.25;5008333;28;20130;-58
2021/12/14 07:49:26;;;;;;;37.38;16.85;;;;;;;10.73;73.40;102766.66;5020203;28;20710;-59
2021/12/14 07:52:02;;;;;;;37.53;17.38;;;;;;;10.75;73.27;102762.38;5011719;28;20426;-58
2021/12/14 07:54:50;;;;;;;35.17;17.38;;;;;;;10.79;73.54;102768.66;5017678;28;20330;-59
2021/12/14 07:57:19;;;;;;;34.92;17.15;;;;;;;10.83;73.42;102778.38;5016160;28;20045;-58
2021/12/14 07:59:49;;;;;;;35.25;16.58;;;;;;;10.81;73.58;102772.19;5006358;28;20055;-59
2021/12/14 08:02:17;;;;;;;38.08;17.92;;;;;;;10.83;73.90;102774.03;5012862;28;20049;-59
2021/12/14 08:04:57;;;;;;;35.63;17.73;;;;;;;10.85;74.19;102772.41;5021370;28;20075;-58
2021/12/14 08:07:44;;;;;;;34.92;17.70;;;;;;;10.81;74.32;102782.63;5010037;28;20037;-58
2021/12/14 08:10:16;;;;;;;39.53;18.40;;;;;;;10.84;74.11;102778.44;5016713;28;20487;-59
2021/12/14 08:12:46;;;;;;;40.40;18.67;;;;;;;10.88;74.15;102782.06;5018551;28;20063;-59
2021/12/14 08:15:28;;;;;;;44.42;20.65;;;;;;;10.85;74.33;102780.25;5023861;28;20045;-59
2021/12/14 08:18:09;;;;;;;49.60;19.33;;;;;;;10.81;74.66;102782.63;5014981;28;20045;-58
2021/12/14 08:20:39;;;;;;;43.75;19.35;;;;;;;10.87;74.84;102786.38;5002901;28;20631;-58
2021/12/14 08:23:18;;;;;;;42.63;19.00;;;;;;;10.86;74.68;102787.22;4980342;28;20069;-60
2021/12/14 08:25:43;;;;;;;40.63;18.75;;;;;;;10.93;75.15;102791.88;5009795;28;20041;-59
2021/12/14 08:28:10;;;;;;;43.78;19.30;;;;;;;10.92;74.96;102791.78;5016306;28;20060;-60
2021/12/14 08:30:43;;;;;;;54.08;29.20;;;;;;;10.99;74.96;102794.72;5019504;28;20052;-59
2021/12/14 08:33:24;;;;;;;41.70;20.20;;;;;;;11.01;75.08;102793.91;5009489;28;20413;-59
2021/12/14 08:35:49;;;;;;;36.60;18.30;;;;;;;10.95;74.81;102803.28;5016229;28;20055;-60
2021/12/14 08:38:18;;;;;;;45.63;21.30;;;;;;;10.98;74.76;102799.88;5009924;28;20053;-59
2021/12/14 08:40:49;;;;;;;45.35;19.90;;;;;;;10.98;74.97;102807.72;4991082;28;20047;-59
2021/12/14 08:43:27;;;;;;;48.58;20.02;;;;;;;11.01;74.65;102813.06;4996480;28;20570;-56
2021/12/14 08:46:00;;;;;;;42.33;19.25;;;;;;;10.98;75.19;102811.22;5014736;28;20055;-57
2021/12/14 08:48:33;;;;;;;45.10;19.33;;;;;;;11.04;74.36;102807.97;5017152;28;20044;-58
2021/12/14 08:51:13;;;;;;;44.33;20.15;;;;;;;11.02;74.63;102809.66;5000169;28;20068;-58
2021/12/14 08:53:49;;;;;;;49.72;21.15;;;;;;;10.95;74.98;102813.72;5010002;28;20149;-58
2021/12/14 08:56:17;;;;;;;45.35;22.25;;;;;;;11.07;74.45;102815.06;5013278;28;20094;-59
2021/12/14 08:58:44;;;;;;;50.50;22.65;;;;;;;11.09;74.58;102814.31;5015411;28;20037;-59
2021/12/14 09:01:16;;;;;;;47.88;21.48;;;;;;;11.07;74.65;102810.72;5018570;28;20045;-58
2021/12/14 09:03:49;;;;;;;49.50;20.13;;;;;;;11.09;74.41;102811.69;5003700;28;20428;-59
2021/12/14 09:06:20;;;;;;;42.00;20.33;;;;;;;11.19;74.48;102808.63;5015380;28;20048;-59
2021/12/14 09:08:47;;;;;;;46.50;19.77;;;;;;;11.06;74.51;102800.22;5005839;28;21896;-59
2021/12/14 09:11:18;;;;;;;42.47;19.17;;;;;;;11.16;74.15;102797.19;5014267;28;20041;-59
2021/12/14 09:13:44;;;;;;;38.92;19.33;;;;;;;11.19;74.25;102806.00;5009445;28;20342;-59
2021/12/14 09:16:19;;;;;;;40.17;18.90;;;;;;;11.21;74.08;102803.47;5011658;28;20057;-59
2021/12/14 09:18:52;;;;;;;38.63;18.88;;;;;;;11.23;74.36;102802.69;5003341;28;20048;-59
2021/12/14 09:21:28;;;;;;;40.25;19.75;;;;;;;11.20;74.40;102809.53;5010717;28;20039;-59
2021/12/14 09:23:59;;;;;;;41.47;18.90;;;;;;;11.20;74.33;102804.31;5017720;28;20053;-59
2021/12/14 09:26:27;;;;;;;48.75;19.65;;;;;;;11.24;74.20;102800.97;5011827;28;20431;-59
2021/12/14 09:28:53;;;;;;;40.13;18.38;;;;;;;11.29;74.45;102804.66;5022428;28;20099;-58
2021/12/14 09:31:23;;;;;;;41.88;19.55;;;;;;;11.30;74.32;102806.44;5017832;28;20045;-59
2021/12/14 09:33:50;;;;;;;38.00;18.05;;;;;;;11.35;74.46;102816.25;5007588;28;20493;-59
2021/12/14 09:36:16;;;;;;;43.45;18.95;;;;;;;11.43;74.39;102821.78;5016306;28;20056;-59
2021/12/14 09:38:44;;;;;;;41.25;19.02;;;;;;;11.54;73.97;102819.63;5014727;28;20504;-59
2021/12/14 09:41:13;;;;;;;40.53;18.52;;;;;;;11.57;73.49;102817.13;4989071;28;20775;-59
2021/12/14 09:43:39;;;;;;;42.97;18.48;;;;;;;11.62;73.43;102818.22;5003100;28;20582;-59
2021/12/14 09:46:06;;;;;;;39.22;18.40;;;;;;;11.68;73.38;102826.28;4999895;28;20041;-59
2021/12/14 09:48:36;;;;;;;38.83;18.13;;;;;;;11.73;73.36;102825.66;5008028;28;20260;-59
2021/12/14 09:51:07;;;;;;;48.70;19.02;;;;;;;11.68;73.35;102823.69;5018677;28;20254;-59
2021/12/14 09:53:36;;;;;;;47.15;18.83;;;;;;;11.72;73.09;102821.25;4993178;28;20037;-58
2021/12/14 09:56:02;;;;;;;37.03;17.80;;;;;;;11.79;72.88;102815.47;5015164;28;20071;-59
2021/12/14 09:58:32;;;;;;;37.38;17.67;;;;;;;11.82;72.75;102811.19;5016960;28;20056;-59
2021/12/14 10:01:06;;;;;;;35.83;17.90;;;;;;;11.83;72.64;102812.97;4991599;28;20126;-58
2021/12/14 10:03:32;;;;;;;35.17;17.35;;;;;;;11.86;72.45;102810.47;5005393;28;20764;-59
2021/12/14 10:06:00;;;;;;;33.92;17.58;;;;;;;11.90;72.54;102813.25;5017885;28;20049;-58
2021/12/14 10:08:35;;;;;;;34.05;17.83;;;;;;;11.98;72.53;102814.47;5005063;28;20669;-59
2021/12/14 10:11:09;;;;;;;33.72;17.13;;;;;;;11.99;72.41;102815.34;5001430;28;20044;-59
2021/12/14 10:13:37;;;;;;;33.53;17.40;;;;;;;11.99;72.20;102803.16;5004719;28;20519;-59
2021/12/14 10:16:04;;;;;;;35.78;16.95;;;;;;;12.04;72.09;102809.47;5008259;28;20353;-58
2021/12/14 10:18:33;;;;;;;33.22;18.10;;;;;;;12.02;72.41;102811.13;5013212;28;20492;-59
2021/12/14 10:21:04;;;;;;;34.50;17.80;;;;;;;12.07;72.27;102809.59;5017214;28;20238;-60
2021/12/14 10:23:30;;;;;;;34.85;17.52;;;;;;;12.03;72.60;102822.47;5000202;28;20579;-60
2021/12/14 10:25:58;;;;;;;34.85;17.70;;;;;;;12.07;72.53;102819.16;4989065;28;20077;-61
2021/12/14 10:28:26;;;;;;;34.92;18.33;;;;;;;12.06;72.56;102820.88;5009805;28;20084;-60
2021/12/14 10:30:58;;;;;;;30.80;17.13;;;;;;;11.99;73.38;102818.84;5003353;28;20203;-61
2021/12/14 10:33:25;;;;;;;36.45;17.55;;;;;;;11.97;73.58;102823.13;5015621;28;20665;-59
2021/12/14 10:35:56;;;;;;;31.63;17.33;;;;;;;11.94;73.82;102819.50;4991214;28;20493;-61
2021/12/14 10:38:30;;;;;;;32.50;17.42;;;;;;;11.88;73.62;102819.28;4993553;28;20144;-60
2021/12/14 10:44:01;;;;;;;35.40;16.92;;;;;;;11.89;74.45;102818.44;5000606;28;20060;-59
2021/12/14 10:46:36;;;;;;;33.75;17.17;;;;;;;11.84;74.41;102818.25;5013765;28;20391;-60
2021/12/14 10:49:02;;;;;;;34.80;16.73;;;;;;;11.86;74.66;102823.53;5012893;28;20040;-59
2021/12/14 10:51:33;;;;;;;34.67;17.10;;;;;;;11.91;74.65;102815.03;4997839;22;20061;-59
2021/12/14 10:54:00;;;;;;;33.55;17.23;;;;;;;11.91;74.98;102811.53;4980517;28;20112;-59
2021/12/14 10:56:29;;;;;;;32.63;17.08;;;;;;;11.94;74.88;102819.50;4977624;28;20109;-59
2021/12/14 10:59:03;;;;;;;34.53;17.27;;;;;;;11.99;74.80;102815.34;4982742;28;20189;-59
2021/12/14 11:01:33;;;;;;;36.75;16.88;;;;;;;11.99;74.88;102815.34;4971570;28;20048;-59
2021/12/14 11:04:04;;;;;;;31.92;16.05;;;;;;;11.89;74.99;102808.88;4982483;28;20058;-59
2021/12/14 11:06:32;;;;;;;35.85;16.90;;;;;;;12.00;74.85;102807.56;4980999;28;20050;-60
2021/12/14 11:11:46;;;;;;;31.40;15.93;;;;;;;11.97;75.36;102810.06;4966205;28;20049;-59
2021/12/14 11:14:15;;;;;;;37.28;16.98;;;;;;;12.05;74.96;102807.75;4977316;28;20081;-59
2021/12/14 11:19:49;;;;;;;30.70;15.75;;;;;;;12.04;75.06;102800.72;4982234;28;20606;-60
2021/12/14 11:22:33;;;;;;;25.60;14.25;;;;;;;12.06;74.83;102805.19;4979266;28;20068;-60
2021/12/14 11:25:07;;;;;;;29.30;15.20;;;;;;;12.08;74.84;102811.34;4983142;28;20730;-60
2021/12/14 11:27:37;;;;;;;29.70;15.05;;;;;;;12.02;74.90;102813.72;4961244;28;20042;-60
2021/12/14 11:30:18;;;;;;;29.90;15.35;;;;;;;11.99;75.02;102799.66;4977962;28;20156;-60
2021/12/14 11:33:01;;;;;;;27.98;15.18;;;;;;;12.02;75.25;102807.59;4968757;28;20046;-58
2021/12/14 11:35:28;;;;;;;27.90;15.70;;;;;;;12.01;75.25;102805.84;4979623;28;20045;-61
2021/12/14 11:37:56;;;;;;;29.13;14.70;;;;;;;12.04;75.19;102801.63;4978517;28;20046;-59
2021/12/14 11:40:26;;;;;;;29.65;15.02;;;;;;;12.00;75.30;102799.72;4977693;28;20074;-58
2021/12/14 11:42:52;;;;;;;30.13;15.43;;;;;;;12.04;75.18;102805.94;4978849;28;20050;-59
2021/12/14 11:45:33;;;;;;;34.28;16.17;;;;;;;12.01;75.68;102803.25;4984528;28;20164;-59
2021/12/14 11:47:59;;;;;;;30.08;14.70;;;;;;;12.04;75.61;102800.72;4974619;28;20527;-58
2021/12/14 11:50:34;;;;;;;29.05;14.93;;;;;;;12.07;75.71;102798.25;4980825;28;20441;-59
2021/12/14 11:53:05;;;;;;;28.08;15.23;;;;;;;12.09;75.57;102794.84;4979811;28;20058;-58
2021/12/14 11:55:42;;;;;;;24.52;14.57;;;;;;;12.09;75.62;102786.09;4972102;28;20042;-59
2021/12/14 11:58:33;;;;;;;31.52;14.35;;;;;;;12.10;75.61;102796.63;4978427;28;20586;-59
2021/12/14 12:01:03;;;;;;;27.35;14.02;;;;;;;12.12;75.55;102794.06;4979793;28;20054;-60
2021/12/14 12:03:51;;;;;;;24.60;13.40;;;;;;;12.12;75.23;102800.19;4970054;28;20153;-60